Time;durP1;ratioP1;P1;durP2;ratioP2;P2;SDS_P1;SDS_P2;PMS_P1;PMS_P2;Temp;Humidity;BMP_temperature;BMP_pressure;BME280_temperature;BME280_humidity;BME280_pressure;Samples;Min_cycle;Max_cycle;Signal;HPM_P1;HPM_P2
2022/07/06 00:01:38;;;;;;;4.25;2.45;;;13.70;99.90;;;;;;21060692;28;20036;-56
2022/07/06 00:11:40;;;;;;;2.50;1.80;;;13.70;99.90;;;;;;21059541;28;20400;-52
2022/07/06 00:21:43;;;;;;;2.83;1.70;;;13.70;99.90;;;;;;21050724;28;20024;-53
2022/07/06 00:31:45;;;;;;;2.85;1.65;;;14.00;99.90;;;;;;20974738;28;20362;-44
2022/07/06 00:41:48;;;;;;;6.38;1.80;;;13.70;99.90;;;;;;20973912;28;20114;-56
2022/07/06 00:51:50;;;;;;;1.15;1.00;;;13.50;99.90;;;;;;20991337;28;20032;-56
2022/07/06 01:01:53;;;;;;;2.67;1.40;;;13.40;99.90;;;;;;21047564;28;20032;-56
2022/07/06 01:11:55;;;;;;;2.30;1.80;;;13.50;99.90;;;;;;21054864;28;20469;-57
2022/07/06 01:21:58;;;;;;;3.38;1.85;;;13.20;99.90;;;;;;21037821;28;20093;-56
2022/07/06 01:32:01;;;;;;;4.05;1.70;;;13.20;99.90;;;;;;21070198;28;20028;-56
2022/07/06 01:42:05;;;;;;;3.92;1.60;;;13.20;99.90;;;;;;21053206;28;20036;-55
2022/07/06 01:52:07;;;;;;;1.80;1.30;;;13.50;99.90;;;;;;20958051;28;20101;-55
2022/07/06 02:02:11;;;;;;;3.40;1.73;;;13.70;99.90;;;;;;20968395;28;20082;-49
2022/07/06 02:12:13;;;;;;;2.88;1.63;;;13.70;99.90;;;;;;20967335;28;20480;-58
2022/07/06 02:22:16;;;;;;;2.42;1.42;;;13.70;99.90;;;;;;20955813;28;20032;-59
2022/07/06 02:32:18;;;;;;;1.60;1.40;;;13.50;99.90;;;;;;21050253;28;20089;-59
2022/07/06 02:42:21;;;;;;;1.88;1.42;;;13.30;99.90;;;;;;21051379;28;20089;-58
2022/07/06 02:52:23;;;;;;;3.10;2.20;;;13.50;99.90;;;;;;21084036;28;20028;-47
2022/07/06 03:02:26;;;;;;;4.38;3.17;;;13.30;99.90;;;;;;21002126;28;20028;-44
2022/07/06 03:12:28;;;;;;;3.13;2.65;;;13.20;99.90;;;;;;20980801;28;20098;-52
2022/07/06 03:22:31;;;;;;;2.95;2.60;;;13.00;99.90;;;;;;20980130;28;20469;-49
2022/07/06 03:32:34;;;;;;;3.17;2.38;;;12.90;99.90;;;;;;20963089;28;20101;-51
2022/07/06 03:42:40;;;;;;;3.25;2.60;;;12.80;99.90;;;;;;20995442;28;20334;-52
2022/07/06 03:52:45;;;;;;;6.30;3.05;;;12.80;99.90;;;;;;21053633;28;20085;-52
2022/07/06 04:02:48;;;;;;;4.18;1.92;;;12.80;99.90;;;;;;21060654;28;20439;-50
2022/07/06 04:12:55;;;;;;;3.10;2.20;;;12.90;99.90;;;;;;21027830;28;20040;-53
2022/07/06 04:22:58;;;;;;;2.35;1.88;;;13.00;99.90;;;;;;21041667;28;20032;-50
2022/07/06 04:33:02;;;;;;;2.33;1.67;;;13.10;99.90;;;;;;20975023;28;20374;-54
2022/07/06 04:43:07;;;;;;;1.88;1.60;;;13.10;99.90;;;;;;20957840;28;20439;-55
2022/07/06 04:53:11;;;;;;;2.40;1.83;;;12.90;99.90;;;;;;20973103;28;20421;-56
2022/07/06 05:03:14;;;;;;;3.13;1.67;;;13.00;99.90;;;;;;21025970;28;20048;-56
2022/07/06 05:13:16;;;;;;;1.58;1.45;;;13.20;99.90;;;;;;21038036;28;20062;-57
2022/07/06 05:23:19;;;;;;;4.80;1.40;;;13.60;99.90;;;;;;21051528;28;20032;-59
2022/07/06 05:33:21;;;;;;;1.25;0.98;;;14.00;99.90;;;;;;21037175;28;20439;-60
2022/07/06 05:43:24;;;;;;;2.55;1.27;;;14.50;99.90;;;;;;21048097;28;20091;-61
2022/07/06 05:53:28;;;;;;;1.80;0.93;;;15.20;99.90;;;;;;20952202;28;20032;-60
2022/07/06 06:03:32;;;;;;;0.95;0.80;;;15.70;99.90;;;;;;20952578;28;20048;-62
2022/07/06 06:13:35;;;;;;;2.80;0.70;;;16.60;99.90;;;;;;20951323;28;20036;-53
2022/07/06 06:23:38;;;;;;;1.27;0.70;;;17.30;99.90;;;;;;20990379;28;20472;-61
2022/07/06 06:33:40;;;;;;;1.30;0.90;;;18.40;99.90;;;;;;21050649;28;20431;-61
2022/07/06 06:43:42;;;;;;;1.05;0.60;;;19.40;94.90;;;;;;21049991;28;20089;-54
2022/07/06 06:53:51;;;;;;;0.40;0.40;;;23.30;90.80;;;;;;21066564;28;20338;-60
2022/07/06 07:03:55;;;;;;;1.88;0.70;;;26.00;78.80;;;;;;20973887;28;20033;-60
2022/07/06 07:13:57;;;;;;;2.25;0.80;;;26.70;73.70;;;;;;20965553;28;20037;-59
2022/07/06 07:23:59;;;;;;;1.33;0.70;;;26.40;79.30;;;;;;20964793;28;20496;-59
2022/07/06 07:34:01;;;;;;;1.90;0.80;;;28.10;80.10;;;;;;20973965;28;20063;-60
2022/07/06 07:44:04;;;;;;;1.73;0.68;;;29.00;69.30;;;;;;20989332;28;20040;-59
2022/07/06 07:54:07;;;;;;;0.98;0.65;;;27.20;68.10;;;;;;21061446;28;20101;-61
2022/07/06 08:04:09;;;;;;;1.23;0.90;;;25.60;82.40;;;;;;21060847;28;20462;-60
2022/07/06 08:14:14;;;;;;;0.88;0.85;;;26.50;78.80;;;;;;21060114;28;20487;-60
2022/07/06 08:24:16;;;;;;;2.65;1.13;;;27.00;82.50;;;;;;21030989;28;20036;-61
2022/07/06 08:34:18;;;;;;;2.33;0.90;;;27.30;73.80;;;;;;20975008;28;20094;-61
2022/07/06 08:44:20;;;;;;;2.83;1.13;;;27.40;79.70;;;;;;20972798;28;20432;-60
2022/07/06 08:54:24;;;;;;;1.67;1.30;;;28.00;82.00;;;;;;20973351;28;20062;-60
2022/07/06 09:04:26;;;;;;;1.70;1.10;;;28.20;80.30;;;;;;21052184;28;20101;-61
2022/07/06 09:14:29;;;;;;;1.45;1.10;;;28.90;77.10;;;;;;21055074;28;20040;-61
2022/07/06 09:24:32;;;;;;;1.92;1.73;;;28.50;82.60;;;;;;21054420;28;20092;-59
2022/07/06 09:34:42;;;;;;;1.50;1.30;;;27.40;85.60;;;;;;21053524;28;20036;-51
2022/07/06 09:44:44;;;;;;;4.65;1.80;;;26.30;86.10;;;;;;21036614;28;20116;-59
2022/07/06 09:54:48;;;;;;;1.88;1.42;;;24.00;91.10;;;;;;20969578;28;20032;-59
2022/07/06 10:04:52;;;;;;;2.15;1.65;;;23.30;91.60;;;;;;20967984;28;20040;-60
2022/07/06 10:14:55;;;;;;;2.28;1.63;;;23.50;91.50;;;;;;20967452;28;20036;-50
2022/07/06 10:24:59;;;;;;;2.28;1.70;;;24.30;90.40;;;;;;20994842;28;20082;-59
2022/07/06 10:35:01;;;;;;;3.17;2.20;;;24.20;90.90;;;;;;21050159;28;20500;-59
2022/07/06 10:45:04;;;;;;;1.85;1.45;;;24.10;89.80;;;;;;21050055;28;20036;-58
2022/07/06 10:55:07;;;;;;;2.08;1.88;;;23.80;92.20;;;;;;21047620;28;20043;-61
2022/07/06 11:05:12;;;;;;;2.75;1.92;;;23.50;93.30;;;;;;20953110;28;20074;-62
2022/07/06 11:15:47;;;;;;;3.97;2.20;;;23.10;93.30;;;;;;20982704;28;20044;-59
2022/07/06 11:25:50;;;;;;;2.80;2.45;;;23.10;99.90;;;;;;20980379;28;20041;-53
2022/07/06 11:35:52;;;;;;;3.03;2.30;;;23.50;94.80;;;;;;20979865;28;20090;-59
2022/07/06 11:45:54;;;;;;;2.83;2.28;;;24.10;93.00;;;;;;20979009;28;20032;-59
2022/07/06 11:56:03;;;;;;;2.55;2.08;;;23.40;92.60;;;;;;20977987;28;20432;-60
2022/07/06 12:06:12;;;;;;;2.17;1.65;;;23.10;95.70;;;;;;21004402;28;20056;-60
2022/07/06 12:16:15;;;;;;;3.08;1.70;;;25.40;91.50;;;;;;21059937;28;20074;-59
2022/07/06 12:26:20;;;;;;;3.60;2.08;;;24.60;90.00;;;;;;21013750;28;20040;-59
2022/07/06 12:36:22;;;;;;;2.17;1.83;;;24.40;87.70;;;;;;20974736;28;20036;-59
2022/07/06 12:46:29;;;;;;;5.07;1.42;;;23.80;90.80;;;;;;20973746;28;20036;-59
2022/07/06 12:56:32;;;;;;;2.38;1.55;;;23.40;93.30;;;;;;20970534;28;20124;-61
2022/07/06 13:06:37;;;;;;;1.58;1.42;;;24.80;92.50;;;;;;21055380;28;20125;-55
2022/07/06 13:16:39;;;;;;;3.50;1.63;;;26.90;89.50;;;;;;21055498;28;20393;-59
2022/07/06 13:26:41;;;;;;;1.20;1.02;;;25.20;90.70;;;;;;21053973;28;20427;-60
2022/07/06 13:36:44;;;;;;;2.22;1.50;;;26.20;88.80;;;;;;21053318;28;20442;-59
2022/07/06 13:46:46;;;;;;;3.15;1.25;;;25.30;87.70;;;;;;21019941;28;20033;-59
2022/07/06 13:56:49;;;;;;;4.55;1.10;;;24.00;91.40;;;;;;20968852;28;20032;-59
2022/07/06 14:06:51;;;;;;;1.60;1.30;;;23.30;92.60;;;;;;20967719;28;20110;-59
2022/07/06 14:16:55;;;;;;;2.70;1.35;;;23.30;92.40;;;;;;20967631;28;20401;-59
2022/07/06 14:26:58;;;;;;;2.13;1.52;;;23.20;92.70;;;;;;21011391;28;20036;-59
2022/07/06 14:37:03;;;;;;;3.35;1.42;;;23.20;92.90;;;;;;21017767;28;20032;-59
2022/07/06 14:47:05;;;;;;;2.35;1.25;;;23.70;92.80;;;;;;21066234;28;20044;-49
2022/07/06 14:57:08;;;;;;;1.92;1.35;;;23.10;93.50;;;;;;21048003;28;20041;-60
2022/07/06 15:07:11;;;;;;;3.85;1.50;;;23.20;94.30;;;;;;20981663;28;20087;-52
2022/07/06 15:17:13;;;;;;;1.60;1.50;;;25.30;91.30;;;;;;20981212;28;20081;-60
2022/07/06 15:27:15;;;;;;;2.25;1.40;;;27.50;85.60;;;;;;20980356;28;20037;-60
2022/07/06 15:37:17;;;;;;;2.92;1.50;;;26.40;86.80;;;;;;20979876;28;20036;-59
2022/07/06 15:47:23;;;;;;;2.00;1.58;;;24.20;91.40;;;;;;21016250;28;20036;-59
2022/07/06 15:57:27;;;;;;;1.50;1.40;;;23.50;90.40;;;;;;21061013;28;20036;-58
2022/07/06 16:07:29;;;;;;;2.75;1.50;;;22.00;93.10;;;;;;21060303;28;20125;-59
2022/07/06 16:17:32;;;;;;;1.77;1.35;;;21.30;94.10;;;;;;21059907;28;20040;-58
2022/07/06 16:27:36;;;;;;;4.05;1.60;;;20.90;95.70;;;;;;21002814;28;20097;-58
2022/07/06 16:37:38;;;;;;;2.08;1.20;;;20.80;96.30;;;;;;20974611;28;20044;-59
2022/07/06 16:47:41;;;;;;;2.13;1.50;;;21.00;97.10;;;;;;20973759;28;20032;-49
2022/07/06 16:57:44;;;;;;;2.92;1.58;;;21.00;97.00;;;;;;20996510;28;20529;-58
2022/07/06 17:07:47;;;;;;;2.58;1.20;;;20.80;96.00;;;;;;21054619;28;20040;-59
2022/07/06 17:17:49;;;;;;;3.55;1.83;;;20.80;97.50;;;;;;21055021;28;20040;-50
2022/07/06 17:27:52;;;;;;;1.60;1.50;;;20.70;96.80;;;;;;21054419;28;20036;-58
2022/07/06 17:37:54;;;;;;;2.22;1.67;;;20.50;96.30;;;;;;21053833;28;20036;-58
2022/07/06 17:47:56;;;;;;;2.47;1.70;;;20.20;96.90;;;;;;21010157;28;20097;-58
2022/07/06 17:58:03;;;;;;;1.85;1.30;;;20.10;96.80;;;;;;20968901;28;20044;-58
2022/07/06 18:08:05;;;;;;;1.90;1.60;;;19.90;97.20;;;;;;20967900;28;20071;-58
2022/07/06 18:18:08;;;;;;;2.00;1.80;;;19.70;98.50;;;;;;20967710;28;20040;-58
2022/07/06 18:28:15;;;;;;;2.88;1.95;;;19.10;99.90;;;;;;21021744;28;20469;-57
2022/07/06 18:38:18;;;;;;;2.58;1.77;;;18.30;99.90;;;;;;21051802;28;20040;-58
2022/07/06 18:48:20;;;;;;;1.95;1.50;;;17.60;99.90;;;;;;21050162;28;20438;-58
2022/07/06 18:58:24;;;;;;;2.47;2.28;;;17.00;99.90;;;;;;21020698;28;20437;-58
2022/07/06 19:08:26;;;;;;;3.40;2.70;;;16.80;99.90;;;;;;20965673;28;20094;-58
2022/07/06 19:18:29;;;;;;;3.00;2.38;;;16.70;99.90;;;;;;20965576;28;20036;-57
2022/07/06 19:28:32;;;;;;;2.75;2.40;;;16.90;99.90;;;;;;20972379;28;20121;-57
2022/07/06 19:38:34;;;;;;;3.63;3.13;;;16.90;99.90;;;;;;20996612;28;20489;-57
2022/07/06 19:48:37;;;;;;;5.88;2.70;;;16.60;99.90;;;;;;21044089;28;20032;-57
2022/07/06 19:58:40;;;;;;;3.95;3.17;;;16.40;99.90;;;;;;21061567;28;20028;-57
2022/07/06 20:08:43;;;;;;;4.25;2.90;;;16.20;99.90;;;;;;21060823;28;20048;-57
2022/07/06 20:18:45;;;;;;;4.97;2.78;;;16.10;99.90;;;;;;21060012;28;20040;-57
2022/07/06 20:28:47;;;;;;;5.10;3.22;;;16.00;99.90;;;;;;20993259;28;20089;-57
2022/07/06 20:38:51;;;;;;;4.65;2.70;;;16.10;99.90;;;;;;20991748;28;20050;-57
2022/07/06 20:48:53;;;;;;;6.18;2.80;;;16.20;99.90;;;;;;20990799;28;20090;-56
2022/07/06 20:58:56;;;;;;;3.38;2.40;;;15.60;99.90;;;;;;21007276;28;20421;-50
2022/07/06 21:08:59;;;;;;;5.78;3.10;;;15.60;99.90;;;;;;21055800;28;20093;-56
2022/07/06 21:19:01;;;;;;;4.93;2.42;;;15.50;99.90;;;;;;21055543;28;20069;-57
2022/07/06 21:29:03;;;;;;;6.13;2.78;;;15.50;99.90;;;;;;21054699;28;20066;-56
2022/07/06 21:39:05;;;;;;;4.32;3.30;;;15.40;99.90;;;;;;21054121;28;20085;-46
2022/07/06 21:49:08;;;;;;;5.85;3.22;;;15.20;99.90;;;;;;20999584;28;20056;-49
2022/07/06 21:59:13;;;;;;;3.80;3.30;;;15.10;99.90;;;;;;20968677;28;20079;-48
2022/07/06 22:09:16;;;;;;;4.22;2.90;;;14.90;99.90;;;;;;20968340;28;20044;-46
2022/07/06 22:19:18;;;;;;;3.92;2.83;;;14.90;99.90;;;;;;20967715;28;20044;-56
2022/07/06 22:29:20;;;;;;;3.85;2.80;;;14.80;99.90;;;;;;20967122;28;20106;-56
2022/07/06 22:39:22;;;;;;;2.40;2.17;;;14.80;99.90;;;;;;20967051;28;20032;-49
2022/07/06 22:49:25;;;;;;;3.15;2.72;;;15.00;99.90;;;;;;20966731;28;20037;-56
2022/07/06 22:59:27;;;;;;;3.30;2.50;;;14.90;99.90;;;;;;21005247;28;20101;-50
2022/07/06 23:09:30;;;;;;;3.25;2.17;;;15.00;99.90;;;;;;21048964;28;20097;-57
2022/07/06 23:19:37;;;;;;;5.05;2.30;;;14.90;99.90;;;;;;21064699;28;20086;-46
2022/07/06 23:29:40;;;;;;;3.70;2.95;;;14.80;99.90;;;;;;21080905;28;20044;-56
2022/07/06 23:39:42;;;;;;;3.30;2.65;;;14.70;99.90;;;;;;21064406;28;20039;-51
2022/07/06 23:49:44;;;;;;;6.18;4.50;;;14.50;99.90;;;;;;21004350;28;20036;-48
2022/07/06 23:59:47;;;;;;;4.07;3.20;;;14.30;99.90;;;;;;20978411;28;20098;-47
